Aérodrome :
LOGIN :

S'inscrire | Disclaimer

   EN    FR    IT 

 










Légende :    VFR   VFR Marginal   IFR   IFR Intensif   IFR Très Intensif
Visi : 
Plafond : 
>= 8 km
>= 3000ft
5 à 8 km
1000 à 3000 ft
1500m à 5 km
500 à 1000 ft
800 à 1500m
200 à 500 ft
< 800m
< 200 ft
Symboles :   Orages  Brouillard  Fortes neiges  Fortes précipitations  Vent > 20 kt
SIGMETs :   Divers  Orages  Givrage  Turbulence  Onde Orograph.  Cendres Volcan.






- Altitude de l'aérodrome : 194 ft
- Code IATA : IEG


EPZG - Zielona Gora Babimost

DERNIER METAR :
  • 231500Z VRB02KT 3000 RA BR BKN003 OVC006 06/06 Q1000

METARs EXPIRÉS :
  • 231430Z 15005KT 120V180 3000 RA BR BKN003 OVC011 06/06 Q1002
  • 231400Z 14005KT 110V180 3500 RA BR SCT005 BKN014 OVC036 06/06 Q1002
  • 231330Z 16005KT 5000 RA BR SCT004 BKN008 OVC025 06/06 Q1004
  • 231300Z 17006KT 5000 -RA BR SCT006 BKN012 OVC017 06/05 Q1005
  • 231230Z 17005KT 5000 -RA BR SCT025 OVC040 06/05 Q1007

TAF TAF EPZG
Valide du 23 à 15h jusqu'au 24 à 00h UTC


231430Z 2315/2324 15005KT 9999 BKN015
BECMG 2315/2317 28020G35KT
TEMPO 2315/2317 4000 RA BKN003 OVC012
TEMPO 2317/2324 28030G45KT SHRA BKN004 BKN017CB
PROB30
TEMPO 2317/2320 3000 TSRA TSGS



MET'MAP, la Météo Aéronautique d'un coup d'oeil ! - Copyright ORBIFLY Décembre 2007 - Disclaimer

ORBIFLY MET'MAP TEAM :

Programmation & Développement : Alexandra Zaïnal
Sur une idée originale de : Baudouin d'Aumeries
Assistance à la programmation : Marc-Olivier Méhu
Soutien technique & logistique : Manuel Goepfert

Contact : metmap@orbifly.com




SOURCES & CREDITS :

   NOAA